Time;durP1;ratioP1;P1;durP2;ratioP2;P2;SDS_P1;SDS_P2;PMS_P1;PMS_P2;Temp;Humidity;BMP_temperature;BMP_pressure;BME280_temperature;BME280_humidity;BME280_pressure;Samples;Min_cycle;Max_cycle;Signal;HPM_P1;HPM_P2
2022/08/25 00:00:46;;;;;;;1.00;0.50;;;24.60;67.20;;;;;;5036037;28;20132;-67
2022/08/25 00:03:12;;;;;;;0.38;0.35;;;24.60;67.20;;;;;;5034635;28;20021;-67
2022/08/25 00:05:38;;;;;;;2.30;0.50;;;24.60;67.20;;;;;;5023139;28;20022;-67
2022/08/25 00:08:05;;;;;;;0.50;0.43;;;24.60;67.20;;;;;;5016204;28;20022;-68
2022/08/25 00:10:31;;;;;;;0.82;0.55;;;24.60;67.20;;;;;;5014945;28;20109;-68
2022/08/25 00:12:57;;;;;;;0.73;0.40;;;24.60;67.20;;;;;;5014921;28;20061;-68
2022/08/25 00:15:23;;;;;;;1.65;0.40;;;24.60;68.30;;;;;;5014757;28;20022;-68
2022/08/25 00:17:49;;;;;;;0.63;0.50;;;24.60;67.20;;;;;;5014542;28;20399;-68
2022/08/25 00:20:15;;;;;;;2.13;0.50;;;24.60;67.10;;;;;;5015029;28;20044;-68
2022/08/25 00:22:40;;;;;;;3.90;0.60;;;24.60;67.20;;;;;;5014656;28;20408;-68
2022/08/25 00:25:07;;;;;;;1.67;0.40;;;24.60;67.30;;;;;;5015803;28;20168;-67
2022/08/25 00:27:32;;;;;;;0.90;0.30;;;24.60;67.20;;;;;;5015768;28;20033;-67
2022/08/25 00:29:59;;;;;;;2.28;0.52;;;24.60;67.20;;;;;;5014417;28;20021;-67
2022/08/25 00:32:25;;;;;;;1.33;0.57;;;24.60;67.20;;;;;;5014381;28;20050;-68
2022/08/25 00:34:52;;;;;;;1.88;0.50;;;24.60;67.20;;;;;;5015654;28;20029;-68
2022/08/25 00:37:17;;;;;;;0.73;0.57;;;24.60;67.20;;;;;;5015342;28;20373;-67
2022/08/25 00:39:43;;;;;;;2.42;0.50;;;24.60;67.20;;;;;;5014319;28;20038;-67
2022/08/25 00:42:09;;;;;;;0.55;0.50;;;24.60;67.10;;;;;;5014401;28;20032;-68
2022/08/25 00:44:34;;;;;;;1.30;0.50;;;24.60;67.20;;;;;;5015072;28;20477;-67
2022/08/25 00:47:00;;;;;;;4.90;0.70;;;24.60;67.20;;;;;;5018982;28;20029;-67
2022/08/25 00:49:57;;;;;;;0.95;0.50;;;24.60;67.30;;;;;;5033841;28;20036;-68
2022/08/25 00:52:26;;;;;;;0.98;0.43;;;24.60;67.20;;;;;;5030421;28;20091;-68
2022/08/25 00:54:58;;;;;;;0.47;0.38;;;24.60;67.30;;;;;;5033903;28;20476;-67
2022/08/25 00:57:45;;;;;;;0.57;0.45;;;24.60;67.30;;;;;;5034968;28;20472;-68
2022/08/25 01:00:24;;;;;;;1.45;0.40;;;24.60;67.20;;;;;;5033110;28;20017;-67
2022/08/25 01:02:49;;;;;;;2.38;0.57;;;24.60;67.20;;;;;;5033658;28;20587;-68
2022/08/25 01:05:17;;;;;;;1.67;0.60;;;24.60;67.30;;;;;;5024110;28;20101;-67
2022/08/25 01:07:42;;;;;;;1.92;0.60;;;24.60;67.20;;;;;;5013721;28;20470;-67
2022/08/25 01:10:08;;;;;;;0.98;0.40;;;24.60;67.20;;;;;;5013932;28;20021;-68
2022/08/25 01:12:35;;;;;;;3.30;0.40;;;24.70;67.30;;;;;;5013668;28;20046;-67
2022/08/25 01:15:01;;;;;;;1.10;0.60;;;24.60;67.20;;;;;;5013637;28;20018;-68
2022/08/25 01:17:52;;;;;;;1.77;0.40;;;24.60;67.20;;;;;;5013648;28;20022;-67
2022/08/25 01:20:20;;;;;;;2.13;0.50;;;24.60;67.30;;;;;;5013767;28;20030;-68
2022/08/25 01:22:46;;;;;;;4.43;0.70;;;24.60;67.20;;;;;;5014774;28;20079;-68
2022/08/25 01:25:33;;;;;;;3.00;0.45;;;24.60;67.30;;;;;;5014795;28;20022;-68
2022/08/25 01:27:59;;;;;;;0.52;0.30;;;24.60;67.20;;;;;;5014213;28;20396;-68
2022/08/25 01:30:24;;;;;;;1.25;0.50;;;24.60;67.30;;;;;;5014627;28;20072;-68
2022/08/25 01:32:50;;;;;;;1.15;0.60;;;24.60;67.30;;;;;;5014397;28;20050;-68
2022/08/25 01:35:16;;;;;;;2.03;0.40;;;24.60;67.30;;;;;;5013192;28;20388;-67
2022/08/25 01:37:41;;;;;;;0.75;0.55;;;24.60;67.40;;;;;;5014417;28;20025;-67
2022/08/25 01:40:08;;;;;;;1.52;0.60;;;24.60;67.30;;;;;;5014442;28;20024;-68
2022/08/25 01:42:45;;;;;;;0.88;0.50;;;24.60;67.40;;;;;;5014062;28;20026;-68
2022/08/25 01:45:11;;;;;;;0.60;0.40;;;24.60;67.40;;;;;;5013094;28;20071;-68
2022/08/25 01:47:37;;;;;;;1.75;0.57;;;24.70;67.40;;;;;;5021781;28;20025;-68
2022/08/25 01:50:03;;;;;;;2.05;0.52;;;24.60;67.30;;;;;;5032746;28;20021;-68
2022/08/25 01:52:36;;;;;;;1.05;0.40;;;24.60;67.30;;;;;;5032742;28;20069;-68
2022/08/25 01:55:03;;;;;;;0.57;0.40;;;24.60;67.40;;;;;;5032706;28;20021;-67
2022/08/25 01:57:30;;;;;;;1.08;0.40;;;24.60;67.40;;;;;;5033719;28;20030;-68
2022/08/25 01:59:56;;;;;;;0.77;0.43;;;24.60;67.30;;;;;;5033730;28;20113;-68
2022/08/25 02:02:22;;;;;;;4.93;0.70;;;24.60;67.40;;;;;;5033828;28;20017;-68
2022/08/25 02:04:48;;;;;;;13.80;0.60;;;24.60;67.30;;;;;;5027800;28;20028;-67
2022/08/25 02:07:13;;;;;;;3.70;0.85;;;24.70;67.40;;;;;;5014240;28;20037;-68
2022/08/25 02:09:40;;;;;;;2.88;0.60;;;24.60;67.40;;;;;;5020241;28;20057;-67
2022/08/25 02:12:08;;;;;;;4.45;0.50;;;24.70;67.50;;;;;;5032101;28;20522;-67
2022/08/25 02:14:35;;;;;;;8.63;0.60;;;24.60;67.40;;;;;;5033048;28;20040;-67
2022/08/25 02:17:01;;;;;;;1.10;0.55;;;24.60;67.50;;;;;;5033178;28;20022;-68
2022/08/25 02:19:26;;;;;;;2.95;0.70;;;24.60;67.60;;;;;;5031984;28;20399;-68
2022/08/25 02:21:52;;;;;;;3.33;0.85;;;24.60;67.50;;;;;;5033059;28;20500;-67
2022/08/25 02:24:18;;;;;;;1.05;0.50;;;24.60;67.60;;;;;;5031960;28;20014;-67
2022/08/25 02:26:43;;;;;;;1.52;0.50;;;24.60;67.70;;;;;;5031344;28;20117;-68
2022/08/25 02:29:09;;;;;;;4.13;0.60;;;24.60;67.60;;;;;;5032917;28;20021;-67
2022/08/25 02:31:42;;;;;;;3.05;0.50;;;24.60;68.60;;;;;;5069236;28;20379;-67
2022/08/25 02:34:07;;;;;;;5.38;0.50;;;24.70;67.70;;;;;;5068249;28;20449;-67
2022/08/25 02:36:33;;;;;;;2.72;0.63;;;24.60;67.60;;;;;;5068211;28;20483;-67
2022/08/25 02:38:59;;;;;;;2.17;0.43;;;24.60;67.60;;;;;;5068122;28;20017;-67
2022/08/25 02:41:25;;;;;;;2.83;0.57;;;24.60;67.60;;;;;;5067747;28;20406;-67
2022/08/25 02:43:51;;;;;;;2.58;0.70;;;24.60;67.60;;;;;;5068051;28;20032;-67
2022/08/25 02:46:18;;;;;;;1.40;0.65;;;24.60;67.60;;;;;;5068011;28;20096;-67
2022/08/25 02:48:44;;;;;;;3.88;0.57;;;24.60;67.70;;;;;;5067741;28;20518;-67
2022/08/25 02:51:11;;;;;;;1.27;0.60;;;24.60;67.70;;;;;;5051252;28;20028;-67
2022/08/25 02:53:40;;;;;;;1.70;0.68;;;24.60;67.80;;;;;;5067788;28;20123;-67
2022/08/25 02:56:08;;;;;;;2.13;0.40;;;24.60;67.70;;;;;;5067624;28;20063;-67
2022/08/25 02:58:34;;;;;;;2.03;0.50;;;24.70;67.80;;;;;;5069011;28;20036;-67
2022/08/25 03:00:59;;;;;;;1.60;0.50;;;24.60;67.70;;;;;;5068858;28;20029;-67
2022/08/25 03:03:25;;;;;;;2.83;0.50;;;24.60;67.80;;;;;;5067624;28;20028;-67
2022/08/25 03:05:51;;;;;;;4.32;1.08;;;24.60;67.80;;;;;;5068631;28;20455;-67
2022/08/25 03:08:16;;;;;;;5.15;0.65;;;24.60;67.80;;;;;;5067514;28;20113;-67
2022/08/25 03:10:42;;;;;;;2.42;0.50;;;24.60;67.80;;;;;;5068297;28;20064;-67
2022/08/25 03:13:08;;;;;;;9.48;0.70;;;24.60;67.80;;;;;;5067298;28;20479;-66
2022/08/25 03:15:36;;;;;;;1.63;0.70;;;24.60;67.80;;;;;;5068610;28;20067;-67
2022/08/25 03:18:03;;;;;;;3.80;0.52;;;24.60;67.80;;;;;;5067273;28;20023;-67
2022/08/25 03:20:28;;;;;;;0.52;0.40;;;24.60;67.80;;;;;;5067162;28;20029;-66
2022/08/25 03:22:54;;;;;;;1.88;0.50;;;24.60;67.80;;;;;;5068446;28;20039;-67
2022/08/25 03:28:04;;;;;;;1.23;0.63;;;24.60;67.80;;;;;;5068406;28;20036;-67
2022/08/25 03:30:30;;;;;;;1.48;0.50;;;24.60;67.80;;;;;;5049582;28;20499;-67
2022/08/25 03:32:56;;;;;;;0.73;0.50;;;24.60;67.80;;;;;;5048323;28;20021;-67
2022/08/25 03:35:22;;;;;;;0.82;0.50;;;24.60;67.80;;;;;;5047032;28;20040;-67
2022/08/25 03:37:47;;;;;;;2.50;0.57;;;24.60;67.80;;;;;;5046996;28;20014;-66
2022/08/25 03:40:14;;;;;;;0.73;0.60;;;24.60;67.80;;;;;;5048184;28;20040;-67
2022/08/25 03:42:40;;;;;;;1.65;0.63;;;24.60;67.80;;;;;;5019435;28;20022;-67
2022/08/25 03:45:07;;;;;;;0.80;0.50;;;24.60;67.80;;;;;;5033561;28;20033;-67
2022/08/25 03:47:33;;;;;;;2.30;0.40;;;24.60;67.80;;;;;;5033671;28;20026;-67
2022/08/25 03:49:58;;;;;;;0.50;0.40;;;24.60;67.80;;;;;;5033550;28;20021;-67
2022/08/25 03:52:24;;;;;;;0.47;0.30;;;24.60;67.90;;;;;;5035730;28;20072;-67
2022/08/25 03:54:50;;;;;;;2.20;0.40;;;24.60;67.80;;;;;;5035326;28;20049;-67
2022/08/25 03:57:15;;;;;;;0.90;0.40;;;24.60;67.80;;;;;;5017655;28;20026;-67
2022/08/25 03:59:41;;;;;;;0.60;0.40;;;24.60;67.80;;;;;;5035496;28;20033;-67
2022/08/25 04:02:07;;;;;;;0.98;0.60;;;24.60;67.80;;;;;;5034202;28;20028;-67
2022/08/25 04:04:32;;;;;;;3.05;0.43;;;24.60;67.80;;;;;;5037934;28;20021;-67
2022/08/25 04:06:58;;;;;;;1.25;0.30;;;24.60;67.80;;;;;;5055344;28;20105;-67
2022/08/25 04:09:24;;;;;;;1.23;0.30;;;24.60;67.80;;;;;;5055052;28;20387;-66
2022/08/25 04:11:50;;;;;;;2.28;0.88;;;24.60;67.80;;;;;;5055117;28;20029;-67
2022/08/25 04:14:15;;;;;;;1.90;0.40;;;24.60;67.90;;;;;;5053970;28;20025;-67
2022/08/25 04:16:41;;;;;;;2.67;0.60;;;24.60;67.80;;;;;;5055160;28;20036;-67
2022/08/25 04:19:08;;;;;;;1.40;0.60;;;24.60;67.90;;;;;;5054760;28;20033;-67
2022/08/25 04:21:34;;;;;;;2.50;0.40;;;24.60;67.80;;;;;;5053703;28;20036;-67
2022/08/25 04:24:00;;;;;;;0.60;0.45;;;24.60;67.90;;;;;;5053614;28;20067;-67
2022/08/25 04:26:31;;;;;;;1.20;0.40;;;24.60;67.80;;;;;;5055084;28;20029;-67
2022/08/25 04:28:57;;;;;;;1.45;0.40;;;24.60;67.90;;;;;;5037279;28;20403;-67
2022/08/25 04:31:23;;;;;;;0.82;0.40;;;24.60;67.90;;;;;;5029129;28;20041;-67
2022/08/25 04:33:48;;;;;;;2.10;0.40;;;24.60;68.00;;;;;;5033498;28;20032;-67
2022/08/25 04:36:16;;;;;;;0.47;0.30;;;24.60;67.80;;;;;;5033623;28;20044;-67
2022/08/25 04:38:42;;;;;;;2.15;0.35;;;24.60;67.90;;;;;;5033142;28;20625;-67
2022/08/25 04:41:08;;;;;;;0.50;0.30;;;24.60;67.90;;;;;;5033467;28;20045;-67
2022/08/25 04:43:34;;;;;;;0.28;0.20;;;24.60;67.90;;;;;;5033617;28;20029;-67
2022/08/25 04:46:05;;;;;;;2.90;0.25;;;24.60;67.80;;;;;;5033293;28;20118;-67
2022/08/25 04:48:31;;;;;;;1.52;0.43;;;24.60;67.90;;;;;;5034690;28;20026;-67
2022/08/25 04:50:57;;;;;;;0.40;0.30;;;24.60;67.90;;;;;;5034082;28;20025;-67
2022/08/25 04:53:22;;;;;;;1.00;0.50;;;24.60;67.90;;;;;;5032390;28;20083;-67
2022/08/25 04:55:48;;;;;;;0.57;0.40;;;24.60;67.90;;;;;;5033169;28;20484;-67
2022/08/25 04:58:14;;;;;;;1.60;0.30;;;24.60;68.00;;;;;;5034343;28;20025;-67
2022/08/25 05:00:40;;;;;;;2.72;0.40;;;24.60;67.90;;;;;;5032716;28;20048;-67
2022/08/25 05:03:06;;;;;;;1.08;0.40;;;24.60;67.80;;;;;;5032798;28;20068;-67
2022/08/25 05:05:33;;;;;;;0.98;0.30;;;24.50;67.80;;;;;;5044795;28;20025;-67
2022/08/25 05:07:59;;;;;;;1.58;0.30;;;24.50;67.80;;;;;;5036337;28;20112;-67
2022/08/25 05:10:24;;;;;;;2.00;0.55;;;24.60;67.90;;;;;;5053878;28;20443;-67
2022/08/25 05:12:50;;;;;;;0.70;0.30;;;24.60;67.80;;;;;;5054001;28;20021;-67
2022/08/25 05:18:00;;;;;;;2.75;0.45;;;24.60;67.80;;;;;;5053977;28;20411;-67
2022/08/25 05:20:25;;;;;;;0.70;0.40;;;24.50;67.80;;;;;;5053373;28;20029;-67
2022/08/25 05:22:51;;;;;;;0.40;0.25;;;24.50;67.90;;;;;;5036021;28;20502;-67
2022/08/25 05:25:17;;;;;;;0.98;0.40;;;24.60;67.90;;;;;;5053557;28;20051;-67
2022/08/25 05:27:42;;;;;;;2.53;0.30;;;24.60;68.00;;;;;;5036033;28;20063;-67
2022/08/25 05:30:10;;;;;;;1.75;0.30;;;24.50;67.80;;;;;;5053290;28;20392;-67
2022/08/25 05:32:36;;;;;;;0.93;0.40;;;24.60;67.90;;;;;;5018314;28;20030;-67
2022/08/25 05:35:01;;;;;;;0.95;0.45;;;24.50;67.80;;;;;;5032205;28;20024;-67
2022/08/25 05:37:27;;;;;;;1.70;0.38;;;24.50;67.80;;;;;;5032393;28;20068;-67
2022/08/25 05:39:53;;;;;;;1.83;0.40;;;24.50;68.90;;;;;;5033522;28;20033;-67
2022/08/25 05:42:18;;;;;;;0.47;0.30;;;24.60;67.90;;;;;;5032445;28;20029;-67
2022/08/25 05:44:44;;;;;;;1.88;0.40;;;24.50;67.90;;;;;;5033623;28;20025;-67
2022/08/25 05:47:10;;;;;;;0.68;0.30;;;24.50;67.80;;;;;;5031879;28;20029;-66
2022/08/25 05:49:35;;;;;;;1.52;0.30;;;24.50;67.90;;;;;;5032927;28;20092;-67
2022/08/25 05:52:01;;;;;;;1.25;0.50;;;24.50;68.00;;;;;;5032481;28;20029;-67
2022/08/25 05:54:27;;;;;;;3.88;0.50;;;24.50;68.00;;;;;;5032419;28;20055;-67
2022/08/25 05:56:52;;;;;;;1.08;0.50;;;24.50;68.10;;;;;;5032534;28;20101;-67
2022/08/25 05:59:18;;;;;;;3.08;0.35;;;24.50;68.10;;;;;;5032296;28;20506;-67
2022/08/25 06:04:27;;;;;;;1.85;0.50;;;24.50;68.10;;;;;;5034928;28;20024;-66
2022/08/25 06:06:54;;;;;;;3.53;0.45;;;24.50;68.20;;;;;;5051024;28;20104;-67
2022/08/25 06:09:23;;;;;;;0.50;0.30;;;24.50;68.20;;;;;;5052021;28;20024;-67
2022/08/25 06:11:48;;;;;;;8.50;0.57;;;24.50;68.20;;;;;;5034290;28;20395;-68
2022/08/25 06:14:14;;;;;;;0.47;0.32;;;24.50;68.20;;;;;;5052062;28;20033;-67
2022/08/25 06:16:40;;;;;;;0.68;0.30;;;24.60;67.80;;;;;;5048485;28;20367;-68
2022/08/25 06:19:07;;;;;;;0.10;0.10;;;24.50;65.90;;;;;;5039250;28;20025;-67
2022/08/25 06:21:32;;;;;;;0.60;0.20;;;24.50;65.50;;;;;;5037318;28;20028;-67
2022/08/25 06:23:58;;;;;;;0.43;0.20;;;24.40;65.70;;;;;;5030734;28;20033;-67
2022/08/25 06:26:24;;;;;;;0.30;0.20;;;24.40;65.80;;;;;;5033612;28;20033;-68
2022/08/25 06:28:50;;;;;;;0.70;0.30;;;24.40;65.70;;;;;;5022886;28;20514;-67
2022/08/25 06:31:15;;;;;;;0.55;0.30;;;24.40;65.70;;;;;;5037935;28;20407;-68
2022/08/25 06:33:42;;;;;;;0.38;0.20;;;24.40;65.80;;;;;;5030211;28;20021;-68
2022/08/25 06:36:07;;;;;;;0.40;0.30;;;24.40;65.80;;;;;;5031771;28;20024;-67
2022/08/25 06:38:33;;;;;;;0.20;0.17;;;24.40;65.90;;;;;;5031736;28;20505;-67
2022/08/25 06:41:04;;;;;;;0.60;0.38;;;24.40;65.80;;;;;;5014176;28;20484;-68
2022/08/25 06:43:31;;;;;;;0.77;0.20;;;24.40;65.80;;;;;;5030477;28;20029;-67
2022/08/25 06:45:57;;;;;;;0.60;0.38;;;24.40;65.90;;;;;;5030508;28;20041;-69
2022/08/25 06:48:22;;;;;;;13.48;2.10;;;24.40;65.90;;;;;;5031938;28;20029;-68
2022/08/25 06:50:48;;;;;;;18.30;3.33;;;24.30;66.00;;;;;;5030699;28;20048;-69
2022/08/25 06:53:14;;;;;;;24.77;3.95;;;24.40;66.20;;;;;;5031022;28;20037;-68
2022/08/25 06:55:39;;;;;;;21.55;3.92;;;24.40;66.40;;;;;;5031853;28;20018;-68
2022/08/25 06:58:05;;;;;;;12.70;2.78;;;24.40;66.50;;;;;;5030636;28;20034;-68
2022/08/25 07:00:31;;;;;;;10.30;2.58;;;24.40;66.60;;;;;;5030393;28;20053;-68
2022/08/25 07:02:57;;;;;;;14.18;2.47;;;24.40;66.70;;;;;;5018350;28;20492;-68
2022/08/25 07:05:23;;;;;;;8.32;2.30;;;24.40;66.80;;;;;;5048834;28;20104;-68
2022/08/25 07:07:49;;;;;;;9.40;2.40;;;24.40;66.80;;;;;;5030063;28;20104;-68
2022/08/25 07:10:15;;;;;;;6.90;2.35;;;24.40;66.70;;;;;;5037743;28;20075;-69
2022/08/25 07:12:40;;;;;;;8.32;2.10;;;24.40;66.70;;;;;;5051817;28;20028;-68
2022/08/25 07:15:06;;;;;;;9.25;2.55;;;24.40;66.70;;;;;;5051813;28;20045;-68
2022/08/25 07:17:32;;;;;;;7.88;2.50;;;24.30;66.70;;;;;;5053594;28;20540;-68
2022/08/25 07:19:57;;;;;;;10.98;2.53;;;24.30;66.60;;;;;;5037201;28;20029;-68
2022/08/25 07:22:23;;;;;;;10.95;2.75;;;24.30;66.60;;;;;;5035509;28;20025;-69
2022/08/25 07:24:49;;;;;;;9.45;2.40;;;24.30;66.60;;;;;;5034625;28;20409;-68
2022/08/25 07:27:15;;;;;;;9.02;2.35;;;24.30;66.60;;;;;;5035446;28;20029;-69
2022/08/25 07:29:41;;;;;;;11.65;2.60;;;24.30;67.60;;;;;;5034284;28;20045;-69
2022/08/25 07:32:06;;;;;;;8.95;2.00;;;24.30;66.60;;;;;;5033837;28;20021;-68
2022/08/25 07:37:17;;;;;;;9.32;2.63;;;24.30;66.60;;;;;;5053474;28;20040;-69
2022/08/25 07:39:43;;;;;;;10.27;3.15;;;24.30;66.60;;;;;;5037338;28;20025;-68
2022/08/25 07:42:08;;;;;;;8.75;2.78;;;24.30;66.50;;;;;;5053970;28;20028;-68
2022/08/25 07:44:34;;;;;;;10.13;2.60;;;24.30;66.50;;;;;;5055273;28;20021;-68
2022/08/25 07:47:00;;;;;;;7.03;2.38;;;24.30;66.60;;;;;;5054895;28;20025;-68
2022/08/25 07:49:25;;;;;;;8.40;2.70;;;24.30;66.50;;;;;;5053994;28;20025;-68
2022/08/25 07:51:52;;;;;;;9.27;2.45;;;24.30;66.50;;;;;;5053759;28;20032;-68
2022/08/25 07:54:17;;;;;;;13.60;2.60;;;24.30;66.50;;;;;;5037255;28;20028;-69
2022/08/25 07:56:43;;;;;;;8.52;2.90;;;24.30;66.50;;;;;;5054894;28;20025;-68
2022/08/25 07:59:08;;;;;;;9.93;2.55;;;24.30;66.50;;;;;;5053577;28;20044;-68
2022/08/25 08:01:34;;;;;;;10.13;2.50;;;24.30;66.50;;;;;;5053473;28;20025;-68
2022/08/25 08:04:00;;;;;;;9.20;2.40;;;24.30;66.50;;;;;;5020768;28;20025;-68
2022/08/25 08:06:26;;;;;;;7.07;2.28;;;24.30;66.50;;;;;;5034705;28;20029;-68
2022/08/25 08:08:52;;;;;;;9.80;2.70;;;24.20;67.40;;;;;;5034695;28;20037;-69
2022/08/25 08:11:19;;;;;;;7.65;2.70;;;24.20;66.50;;;;;;5051633;28;20029;-68
2022/08/25 08:13:46;;;;;;;7.93;2.17;;;24.20;66.50;;;;;;5054632;28;20117;-68
2022/08/25 08:16:12;;;;;;;7.10;2.63;;;24.20;66.50;;;;;;5036829;28;20021;-68
2022/08/25 08:18:38;;;;;;;8.77;2.30;;;24.20;66.50;;;;;;5054408;28;20017;-68
2022/08/25 08:21:03;;;;;;;6.45;2.45;;;24.20;66.40;;;;;;5053328;28;20094;-68
2022/08/25 08:23:29;;;;;;;7.53;2.85;;;24.20;66.50;;;;;;5053079;28;20025;-69
2022/08/25 08:25:55;;;;;;;8.82;2.58;;;24.20;66.50;;;;;;5054543;28;20079;-68
2022/08/25 08:28:21;;;;;;;9.15;2.60;;;24.20;66.50;;;;;;5036412;28;20029;-68
2022/08/25 08:30:47;;;;;;;7.38;2.35;;;24.20;66.50;;;;;;5053783;28;20045;-68
2022/08/25 08:33:13;;;;;;;9.52;2.67;;;24.20;66.50;;;;;;5054174;28;20044;-68
2022/08/25 08:35:39;;;;;;;5.57;2.10;;;24.20;66.50;;;;;;5054188;28;20480;-68
2022/08/25 08:38:05;;;;;;;6.10;2.05;;;24.20;66.50;;;;;;5053019;28;20024;-69
2022/08/25 08:40:31;;;;;;;6.85;2.30;;;24.20;66.50;;;;;;5052803;28;20048;-68
2022/08/25 08:43:05;;;;;;;5.20;2.28;;;24.20;66.40;;;;;;5036071;28;20036;-68
2022/08/25 08:45:49;;;;;;;4.55;2.10;;;24.20;66.40;;;;;;5052770;28;20761;-68
2022/08/25 08:48:27;;;;;;;7.20;2.35;;;24.20;66.50;;;;;;5052887;28;20040;-68
2022/08/25 08:51:17;;;;;;;8.50;2.30;;;24.20;66.50;;;;;;5053941;28;20104;-69
2022/08/25 08:54:06;;;;;;;9.32;2.60;;;24.20;66.40;;;;;;5053677;28;20071;-68
2022/08/25 08:56:35;;;;;;;5.90;2.47;;;24.10;66.50;;;;;;5053200;28;20507;-68
2022/08/25 08:59:18;;;;;;;5.90;2.47;;;24.20;66.40;;;;;;5035953;28;20025;-68
2022/08/25 09:01:49;;;;;;;7.18;2.45;;;24.10;66.30;;;;;;5052518;28;20109;-69
2022/08/25 09:04:21;;;;;;;7.30;2.05;;;24.10;66.40;;;;;;5018200;28;20040;-69
2022/08/25 09:06:48;;;;;;;8.20;2.40;;;24.20;66.40;;;;;;5032632;28;20030;-69
2022/08/25 09:09:18;;;;;;;4.55;1.90;;;24.10;66.40;;;;;;5033539;28;20029;-68
2022/08/25 09:11:53;;;;;;;7.18;2.25;;;24.20;66.40;;;;;;5052159;28;20049;-68
2022/08/25 09:14:41;;;;;;;7.47;2.00;;;24.10;66.40;;;;;;5053238;28;20021;-68
2022/08/25 09:17:10;;;;;;;6.22;2.22;;;24.10;66.30;;;;;;5036554;28;20071;-68
2022/08/25 09:20:13;;;;;;;6.93;2.40;;;24.10;66.30;;;;;;5036472;28;20033;-68
2022/08/25 09:22:41;;;;;;;7.53;1.95;;;24.10;66.30;;;;;;5033252;28;20108;-69
2022/08/25 09:25:34;;;;;;;7.47;1.92;;;24.10;66.40;;;;;;5033266;28;20030;-69
2022/08/25 09:28:41;;;;;;;6.22;1.95;;;24.10;66.40;;;;;;5032140;28;20017;-69
2022/08/25 09:31:34;;;;;;;5.53;2.15;;;24.10;66.40;;;;;;5032604;28;20049;-69
2022/08/25 09:34:02;;;;;;;9.32;2.00;;;24.10;66.30;;;;;;5030944;28;20034;-69
2022/08/25 09:36:29;;;;;;;3.65;1.85;;;24.10;66.40;;;;;;5031835;28;20029;-68
2022/08/25 09:38:54;;;;;;;7.65;2.47;;;24.10;66.40;;;;;;5031877;28;20021;-68
2022/08/25 09:41:43;;;;;;;5.78;1.80;;;24.10;66.40;;;;;;5032469;28;20163;-68
2022/08/25 09:44:18;;;;;;;4.93;1.95;;;24.10;66.30;;;;;;5032985;28;20104;-68
2022/08/25 09:47:00;;;;;;;6.85;2.10;;;24.10;66.30;;;;;;5031744;28;20037;-68
2022/08/25 09:49:36;;;;;;;;;;;24.10;66.40;;;;;;5032205;28;20499;-68
2022/08/25 09:52:36;;;;;;;5.32;1.95;;;24.10;66.30;;;;;;5031693;28;20417;-69
2022/08/25 09:55:04;;;;;;;5.40;2.25;;;24.10;66.40;;;;;;5031650;28;20072;-69
2022/08/25 09:57:43;;;;;;;4.50;1.88;;;24.10;66.40;;;;;;5032509;28;20101;-69
2022/08/25 10:00:20;;;;;;;6.38;2.13;;;24.10;66.40;;;;;;5032709;28;20092;-69
2022/08/25 10:03:06;;;;;;;3.15;1.70;;;24.10;66.40;;;;;;5032591;28;20033;-69
2022/08/25 10:05:34;;;;;;;4.15;1.75;;;24.10;66.40;;;;;;5031388;28;20044;-68
2022/08/25 10:08:02;;;;;;;5.25;1.88;;;24.10;66.40;;;;;;5015060;28;20068;-68
2022/08/25 10:10:37;;;;;;;4.85;1.95;;;24.10;66.40;;;;;;5042297;28;20025;-69
2022/08/25 10:13:12;;;;;;;5.32;2.08;;;24.10;66.40;;;;;;5035024;28;20029;-69
2022/08/25 10:15:38;;;;;;;7.20;2.47;;;24.10;66.40;;;;;;5051259;28;20036;-69
2022/08/25 10:18:24;;;;;;;4.72;2.08;;;24.10;66.40;;;;;;5052348;28;20458;-69
2022/08/25 10:21:17;;;;;;;4.00;1.83;;;24.10;66.40;;;;;;5051271;28;20032;-68
2022/08/25 10:23:48;;;;;;;3.83;1.83;;;24.10;66.40;;;;;;5052237;28;20025;-68
2022/08/25 10:26:29;;;;;;;6.15;1.85;;;24.10;66.40;;;;;;5034716;28;20025;-68
2022/08/25 10:29:14;;;;;;;4.13;2.00;;;24.10;66.40;;;;;;5051332;28;20017;-68
2022/08/25 10:31:50;;;;;;;3.35;1.70;;;24.10;66.40;;;;;;5051844;28;20576;-69
2022/08/25 10:34:34;;;;;;;4.35;1.52;;;24.10;66.50;;;;;;5035092;28;20029;-68
2022/08/25 10:37:21;;;;;;;3.97;1.60;;;24.00;66.40;;;;;;5052387;28;20017;-68
2022/08/25 10:40:21;;;;;;;3.00;1.67;;;24.00;66.40;;;;;;5051932;28;20021;-68
2022/08/25 10:42:58;;;;;;;2.80;1.50;;;24.10;66.40;;;;;;5052285;28;20017;-68
2022/08/25 10:45:44;;;;;;;2.97;1.65;;;24.00;66.40;;;;;;5051932;28;20055;-68
2022/08/25 10:48:21;;;;;;;5.55;1.60;;;24.10;66.40;;;;;;5052054;28;20017;-69
2022/08/25 10:51:06;;;;;;;4.85;1.73;;;24.00;66.40;;;;;;5051959;28;20545;-69
2022/08/25 10:53:52;;;;;;;3.53;1.55;;;24.00;66.40;;;;;;5055741;28;20025;-68
2022/08/25 10:56:22;;;;;;;4.55;1.60;;;24.00;66.40;;;;;;5056139;28;20032;-68
2022/08/25 10:58:54;;;;;;;4.78;1.70;;;24.00;66.40;;;;;;5054616;28;20017;-68
2022/08/25 11:02:10;;;;;;;3.30;1.43;;;24.00;66.40;;;;;;5056088;28;20458;-68
2022/08/25 11:05:13;;;;;;;1.73;1.15;;;24.00;66.30;;;;;;5034782;28;20045;-68
2022/08/25 11:07:44;;;;;;;2.35;1.40;;;24.00;66.40;;;;;;5044910;28;20044;-68
2022/08/25 11:10:11;;;;;;;2.53;1.55;;;24.00;66.40;;;;;;5039867;28;20026;-68
2022/08/25 11:12:42;;;;;;;3.85;1.80;;;24.00;66.40;;;;;;5051052;28;20025;-68
2022/08/25 11:15:11;;;;;;;4.97;1.85;;;24.00;66.40;;;;;;5034636;28;20487;-68
2022/08/25 11:17:51;;;;;;;4.25;1.58;;;24.00;66.40;;;;;;5034749;28;20022;-68
2022/08/25 11:20:20;;;;;;;3.13;1.30;;;24.00;66.40;;;;;;5051241;28;20029;-69
2022/08/25 11:23:07;;;;;;;2.15;1.20;;;24.00;66.40;;;;;;5035255;28;20509;-68
2022/08/25 11:25:36;;;;;;;2.75;1.23;;;24.00;66.30;;;;;;5035658;28;20029;-68
2022/08/25 11:28:29;;;;;;;4.13;1.55;;;24.00;66.40;;;;;;5034452;28;20026;-68
2022/08/25 11:30:56;;;;;;;2.45;1.27;;;24.00;66.30;;;;;;5033997;28;20042;-68
2022/08/25 11:33:22;;;;;;;2.13;1.10;;;24.00;66.40;;;;;;5034206;28;20022;-68
2022/08/25 11:36:08;;;;;;;3.03;1.70;;;24.00;66.30;;;;;;5050772;28;20391;-68
2022/08/25 11:38:58;;;;;;;3.08;1.23;;;24.00;66.40;;;;;;5037902;28;20021;-68
2022/08/25 11:41:37;;;;;;;2.42;1.30;;;24.00;66.30;;;;;;5035300;28;20112;-68
2022/08/25 11:44:37;;;;;;;3.47;1.65;;;24.00;66.30;;;;;;5050378;28;20044;-68
2022/08/25 11:47:21;;;;;;;2.85;1.65;;;24.00;67.40;;;;;;5049135;28;20025;-68
2022/08/25 11:50:02;;;;;;;3.03;1.17;;;24.00;66.40;;;;;;5034879;28;20589;-68
2022/08/25 11:52:34;;;;;;;4.32;1.20;;;24.00;66.40;;;;;;5034915;28;20120;-68
2022/08/25 11:55:10;;;;;;;5.10;1.55;;;24.00;66.40;;;;;;5035123;28;20029;-68
2022/08/25 11:57:36;;;;;;;3.05;1.25;;;24.00;66.40;;;;;;5033850;28;20492;-68
2022/08/25 12:00:13;;;;;;;1.50;1.15;;;24.00;66.30;;;;;;5033658;28;20033;-68
2022/08/25 12:02:39;;;;;;;2.72;1.35;;;24.00;66.30;;;;;;5036609;28;20035;-68
2022/08/25 12:05:28;;;;;;;3.28;1.42;;;24.00;66.40;;;;;;5054879;28;20021;-68
2022/08/25 12:11:00;;;;;;;2.80;1.02;;;24.00;66.30;;;;;;5039467;28;20032;-68
2022/08/25 12:13:25;;;;;;;2.17;1.42;;;24.00;66.30;;;;;;5034860;28;20029;-68
2022/08/25 12:15:51;;;;;;;3.88;1.33;;;23.90;66.40;;;;;;5034568;28;20100;-68
2022/08/25 12:18:23;;;;;;;3.55;1.52;;;24.00;66.40;;;;;;5034794;28;20106;-68
2022/08/25 12:20:57;;;;;;;4.72;1.52;;;24.00;66.30;;;;;;5034402;28;20055;-68
2022/08/25 12:23:33;;;;;;;2.17;1.33;;;24.00;66.30;;;;;;5034539;28;20034;-68
2022/08/25 12:26:28;;;;;;;2.10;1.10;;;23.90;66.20;;;;;;5033275;28;20029;-68
2022/08/25 12:29:00;;;;;;;2.58;1.50;;;24.00;66.20;;;;;;5035610;28;20180;-68
2022/08/25 12:31:56;;;;;;;2.08;0.90;;;24.00;66.30;;;;;;5034033;28;20472;-68
2022/08/25 12:34:33;;;;;;;3.03;1.25;;;24.00;66.20;;;;;;5034347;28;20595;-68
2022/08/25 12:37:15;;;;;;;2.58;0.98;;;24.00;66.20;;;;;;5034088;28;20028;-68
2022/08/25 12:39:53;;;;;;;2.95;1.23;;;24.00;66.30;;;;;;5033109;28;20377;-68
2022/08/25 12:42:38;;;;;;;2.60;0.98;;;23.90;66.20;;;;;;5033015;28;20047;-68
2022/08/25 12:45:19;;;;;;;2.10;1.08;;;23.90;66.20;;;;;;5033015;28;20117;-68
2022/08/25 12:47:46;;;;;;;3.35;1.08;;;23.90;66.20;;;;;;5033984;28;20025;-68
2022/08/25 12:50:44;;;;;;;1.38;0.90;;;24.00;66.20;;;;;;5032674;28;20022;-69
2022/08/25 12:53:16;;;;;;;1.63;1.00;;;23.90;66.20;;;;;;5032779;28;20013;-68
2022/08/25 12:55:53;;;;;;;2.75;1.15;;;23.90;66.20;;;;;;5034018;28;20144;-68
2022/08/25 12:58:19;;;;;;;1.83;1.13;;;24.00;66.10;;;;;;5032826;28;20018;-68
2022/08/25 13:01:06;;;;;;;2.75;1.02;;;24.00;66.20;;;;;;5033720;28;20033;-69
2022/08/25 13:03:56;;;;;;;2.40;0.90;;;24.00;66.10;;;;;;5033748;28;20029;-68
2022/08/25 13:06:37;;;;;;;5.70;1.30;;;24.00;66.20;;;;;;5033873;28;20053;-69
2022/08/25 13:09:33;;;;;;;1.42;1.05;;;24.00;66.20;;;;;;5032750;28;20028;-69
2022/08/25 13:12:09;;;;;;;2.55;1.10;;;24.00;66.20;;;;;;5033431;28;20037;-68
2022/08/25 13:14:38;;;;;;;2.63;1.00;;;23.90;66.10;;;;;;5031549;28;20144;-68
2022/08/25 13:17:04;;;;;;;2.65;1.10;;;24.00;66.20;;;;;;5032405;28;20017;-68